createdAt,value
2022-11-27T00:02:04.293Z,3.90
2022-11-27T00:04:36.271Z,3.90
2022-11-27T00:07:07.140Z,3.80
2022-11-27T00:09:36.362Z,3.90
2022-11-27T00:12:08.395Z,3.90
2022-11-27T00:14:37.822Z,3.80
2022-11-27T00:17:07.337Z,3.80
2022-11-27T00:19:36.687Z,3.80
2022-11-27T00:22:05.892Z,3.80
2022-11-27T00:24:35.163Z,3.80
2022-11-27T00:27:04.243Z,3.80
2022-11-27T00:29:35.740Z,3.80
2022-11-27T00:32:06.868Z,3.80
2022-11-27T00:34:43.484Z,3.80
2022-11-27T00:37:17.909Z,3.80
2022-11-27T00:39:49.359Z,3.80
2022-11-27T00:42:22.197Z,3.90
2022-11-27T00:44:52.829Z,3.90
2022-11-27T00:47:22.166Z,3.90
2022-11-27T00:49:51.237Z,4.20
2022-11-27T00:52:20.556Z,4.20
2022-11-27T00:54:51.944Z,4.10
2022-11-27T00:57:21.102Z,4.10
2022-11-27T00:59:50.466Z,4.20
2022-11-27T01:02:21.100Z,4.10
2022-11-27T01:04:51.084Z,4.20
2022-11-27T01:07:22.689Z,4.20
2022-11-27T01:09:51.829Z,4.30
2022-11-27T01:12:20.924Z,4.30
2022-11-27T01:14:49.763Z,4.30
2022-11-27T01:17:20.495Z,4.30
2022-11-27T01:19:50.955Z,4.30
2022-11-27T01:22:20.769Z,4.30
2022-11-27T01:24:50.163Z,4.20
2022-11-27T01:27:19.750Z,4.20
2022-11-27T01:29:49.561Z,4.30
2022-11-27T01:32:20.096Z,4.20
2022-11-27T01:34:49.983Z,4.10
2022-11-27T01:37:18.867Z,4.10
2022-11-27T01:39:49.345Z,4.10
2022-11-27T01:42:18.257Z,4.00
2022-11-27T01:44:56.798Z,3.90
2022-11-27T01:47:47.649Z,4.10
2022-11-27T01:50:22.013Z,4.20
2022-11-27T01:52:55.209Z,4.20
2022-11-27T01:55:30.409Z,4.20
2022-11-27T01:58:03.046Z,4.20
2022-11-27T02:00:32.650Z,4.20
2022-11-27T02:03:03.798Z,4.20
2022-11-27T02:05:34.023Z,4.20
2022-11-27T02:08:07.620Z,4.10
2022-11-27T02:10:49.925Z,4.10
2022-11-27T02:13:25.174Z,4.10
2022-11-27T02:16:00.912Z,4.30
2022-11-27T02:18:37.611Z,4.20
2022-11-27T02:21:12.624Z,4.20
2022-11-27T02:24:03.736Z,4.20
2022-11-27T02:26:51.448Z,4.20
2022-11-27T02:29:25.874Z,4.30
2022-11-27T02:32:02.710Z,4.30
2022-11-27T02:34:39.234Z,4.20
2022-11-27T02:37:20.255Z,4.30
2022-11-27T02:40:03.024Z,4.30
2022-11-27T02:42:35.968Z,4.30
2022-11-27T02:45:10.805Z,4.30
2022-11-27T02:47:42.278Z,4.30
2022-11-27T02:50:15.839Z,4.40
2022-11-27T02:52:46.942Z,4.30
2022-11-27T02:55:19.446Z,4.30
2022-11-27T02:57:49.862Z,4.30
2022-11-27T03:00:24.114Z,4.20
2022-11-27T03:02:58.389Z,4.30
2022-11-27T03:05:31.784Z,4.30
2022-11-27T03:08:04.802Z,4.30
2022-11-27T03:10:38.560Z,4.30
2022-11-27T03:13:09.258Z,4.30
2022-11-27T03:15:47.176Z,4.20
2022-11-27T03:18:25.299Z,4.00
2022-11-27T03:21:06.357Z,4.00
2022-11-27T03:23:35.503Z,2.90
2022-11-27T03:26:04.329Z,4.00
2022-11-27T03:28:34.650Z,4.10
2022-11-27T03:31:05.324Z,4.30
2022-11-27T03:33:34.280Z,4.40
2022-11-27T03:36:03.411Z,4.40
2022-11-27T03:38:32.923Z,4.20
2022-11-27T03:41:07.378Z,4.40
2022-11-27T03:43:44.835Z,4.40
2022-11-27T03:46:25.396Z,4.20
2022-11-27T03:49:04.621Z,4.10
2022-11-27T03:51:44.769Z,4.10
2022-11-27T03:54:19.598Z,4.20
2022-11-27T03:56:55.748Z,4.20
2022-11-27T03:59:28.201Z,4.10
2022-11-27T04:01:59.146Z,4.00
2022-11-27T04:04:28.689Z,4.00
2022-11-27T04:06:57.661Z,4.00
2022-11-27T04:09:27.284Z,4.00
2022-11-27T04:11:56.485Z,4.00
2022-11-27T04:14:25.654Z,4.00
2022-11-27T04:16:54.701Z,4.10
2022-11-27T04:19:25.997Z,4.20
2022-11-27T04:21:54.732Z,4.20
2022-11-27T04:24:24.420Z,4.20
2022-11-27T04:26:57.363Z,4.10
2022-11-27T04:29:26.128Z,4.00
2022-11-27T04:31:55.022Z,4.00
2022-11-27T04:34:25.937Z,4.00
2022-11-27T04:36:55.287Z,4.20
2022-11-27T04:39:24.461Z,4.30
2022-11-27T04:41:53.608Z,4.30
2022-11-27T04:44:22.996Z,4.10
2022-11-27T04:46:52.439Z,4.10
2022-11-27T04:49:21.866Z,4.00
2022-11-27T04:51:54.741Z,3.90
2022-11-27T04:54:23.842Z,4.10
2022-11-27T04:56:52.421Z,4.10
2022-11-27T04:59:21.689Z,4.00
2022-11-27T05:01:50.546Z,4.00
2022-11-27T05:04:19.371Z,4.00
2022-11-27T05:06:49.691Z,3.90
2022-11-27T05:09:21.982Z,3.90
2022-11-27T05:11:51.670Z,3.90
2022-11-27T05:14:22.208Z,3.90
2022-11-27T05:16:54.332Z,4.00
2022-11-27T05:19:25.016Z,4.20
2022-11-27T05:21:55.571Z,4.30
2022-11-27T05:24:28.264Z,4.30
2022-11-27T05:26:57.802Z,4.30
2022-11-27T05:29:27.263Z,4.30
2022-11-27T05:31:57.123Z,4.20
2022-11-27T05:34:26.123Z,4.20
2022-11-27T05:36:55.292Z,4.10
2022-11-27T05:39:30.220Z,4.20
2022-11-27T05:41:59.217Z,4.40
2022-11-27T05:44:28.863Z,4.40
2022-11-27T05:46:58.646Z,4.40
2022-11-27T05:49:32.080Z,4.30
2022-11-27T05:52:01.081Z,4.30
2022-11-27T05:54:31.672Z,4.10
2022-11-27T05:57:00.189Z,4.10
2022-11-27T05:59:29.012Z,4.10
2022-11-27T06:01:57.922Z,4.20
2022-11-27T06:04:27.314Z,4.10
2022-11-27T06:07:03.836Z,4.30
2022-11-27T06:09:35.438Z,4.30
2022-11-27T06:12:04.580Z,4.30
2022-11-27T06:14:36.012Z,4.20
2022-11-27T06:17:05.118Z,4.10
2022-11-27T06:19:34.469Z,4.20
2022-11-27T06:22:03.815Z,4.20
2022-11-27T06:24:34.873Z,4.30
2022-11-27T06:27:03.717Z,4.20
2022-11-27T06:29:32.348Z,4.10
2022-11-27T06:32:01.050Z,4.10
2022-11-27T06:34:30.534Z,4.10
2022-11-27T06:36:59.228Z,4.10
2022-11-27T06:39:27.911Z,4.00
2022-11-27T06:41:58.888Z,4.10
2022-11-27T06:44:28.155Z,4.30
2022-11-27T06:46:57.363Z,4.30
2022-11-27T06:49:28.279Z,4.20
2022-11-27T06:51:57.344Z,4.10
2022-11-27T06:54:26.150Z,4.20
2022-11-27T06:56:55.690Z,4.30
2022-11-27T06:59:27.296Z,4.40
2022-11-27T07:01:55.951Z,4.30
2022-11-27T07:04:25.339Z,4.10
2022-11-27T07:06:56.374Z,4.20
2022-11-27T07:09:26.399Z,4.20
2022-11-27T07:11:55.686Z,4.30
2022-11-27T07:14:29.279Z,4.20
2022-11-27T07:16:58.955Z,4.30
2022-11-27T07:19:28.483Z,4.50
2022-11-27T07:21:57.177Z,4.50
2022-11-27T07:24:26.731Z,4.50
2022-11-27T07:26:55.640Z,4.50
2022-11-27T07:29:26.319Z,4.40
2022-11-27T07:31:55.681Z,4.50
2022-11-27T07:34:24.569Z,4.50
2022-11-27T07:36:54.097Z,4.50
2022-11-27T07:39:46.276Z,4.50
2022-11-27T07:42:37.120Z,4.60
2022-11-27T07:45:04.018Z,4.40
2022-11-27T07:47:32.640Z,4.50
2022-11-27T07:50:02.218Z,4.40
2022-11-27T07:52:35.484Z,4.40
2022-11-27T07:55:08.272Z,4.50
2022-11-27T07:57:37.864Z,4.60
2022-11-27T08:00:12.037Z,4.60
2022-11-27T08:02:41.058Z,4.70
2022-11-27T08:05:14.529Z,4.70
2022-11-27T08:07:43.776Z,4.60
2022-11-27T08:10:13.579Z,4.60
2022-11-27T08:12:42.511Z,4.60
2022-11-27T08:15:14.967Z,4.60
2022-11-27T08:17:45.614Z,4.80
2022-11-27T08:20:16.267Z,4.80
2022-11-27T08:22:45.501Z,4.80
2022-11-27T08:25:14.915Z,4.70
2022-11-27T08:27:44.420Z,4.70
2022-11-27T08:30:15.516Z,4.80
2022-11-27T08:32:45.428Z,4.80
2022-11-27T08:35:14.530Z,4.90
2022-11-27T08:37:43.973Z,4.90
2022-11-27T08:40:13.801Z,4.70
2022-11-27T08:42:43.027Z,4.60
2022-11-27T08:45:13.262Z,5.00
2022-11-27T08:47:43.702Z,5.00
2022-11-27T08:50:12.757Z,5.00
2022-11-27T08:52:41.591Z,5.00
2022-11-27T08:55:11.490Z,5.20
2022-11-27T08:57:40.140Z,5.30
2022-11-27T09:00:10.407Z,5.00
2022-11-27T09:02:40.781Z,5.00
2022-11-27T09:05:11.812Z,4.90
2022-11-27T09:07:42.308Z,4.90
2022-11-27T09:10:13.017Z,4.90
2022-11-27T09:12:43.698Z,5.10
2022-11-27T09:15:14.484Z,5.20
2022-11-27T09:17:45.841Z,5.10
2022-11-27T09:20:16.369Z,4.90
2022-11-27T09:22:46.264Z,4.90
2022-11-27T09:25:15.784Z,5.20
2022-11-27T09:27:45.199Z,5.30
2022-11-27T09:30:15.282Z,5.30
2022-11-27T09:32:46.309Z,5.50
2022-11-27T09:35:16.037Z,5.10
2022-11-27T09:37:45.741Z,4.90
2022-11-27T09:40:19.283Z,4.90
2022-11-27T09:42:55.078Z,5.10
2022-11-27T09:45:25.866Z,5.10
2022-11-27T09:48:05.744Z,5.20
2022-11-27T09:50:41.811Z,5.10
2022-11-27T09:53:21.904Z,5.20
2022-11-27T09:55:57.225Z,5.30
2022-11-27T09:58:37.718Z,5.30
2022-11-27T10:01:17.545Z,5.20
2022-11-27T10:03:48.472Z,5.20
2022-11-27T10:06:28.492Z,5.20
2022-11-27T10:09:12.896Z,5.40
2022-11-27T10:11:53.652Z,4.10
2022-11-27T10:14:40.927Z,5.40
2022-11-27T10:17:18.349Z,5.50
2022-11-27T10:19:56.859Z,5.60
2022-11-27T10:22:33.514Z,5.70
2022-11-27T10:25:13.094Z,5.40
2022-11-27T10:27:47.020Z,5.20
2022-11-27T10:30:17.992Z,5.30
2022-11-27T10:32:56.779Z,5.50
2022-11-27T10:35:30.686Z,5.80
2022-11-27T10:38:07.217Z,6.00
2022-11-27T10:40:40.445Z,5.90
2022-11-27T10:43:14.142Z,5.80
2022-11-27T10:45:48.180Z,5.90
2022-11-27T10:48:18.183Z,5.80
2022-11-27T10:50:49.391Z,5.50
2022-11-27T10:53:27.719Z,5.30
2022-11-27T10:56:29.368Z,5.20
2022-11-27T10:59:01.571Z,5.40
2022-11-27T11:01:42.956Z,5.70
2022-11-27T11:04:36.351Z,5.90
2022-11-27T11:07:06.293Z,5.60
2022-11-27T11:09:37.834Z,5.90
2022-11-27T11:12:10.992Z,6.00
2022-11-27T11:14:43.449Z,5.80
2022-11-27T11:17:19.299Z,6.00
2022-11-27T11:19:49.139Z,6.10
2022-11-27T11:22:20.026Z,6.50
2022-11-27T11:27:36.412Z,6.60
2022-11-27T11:30:08.355Z,6.60
2022-11-27T11:32:39.255Z,6.50
2022-11-27T11:35:13.277Z,6.80
2022-11-27T11:37:47.592Z,6.90
2022-11-27T11:40:26.776Z,6.70
2022-11-27T11:42:59.680Z,6.50
2022-11-27T11:45:36.507Z,6.70
2022-11-27T11:48:23.847Z,6.40
2022-11-27T11:50:56.058Z,6.30
2022-11-27T11:53:35.939Z,6.30
2022-11-27T11:56:15.675Z,6.40
2022-11-27T11:58:55.175Z,6.30
2022-11-27T12:01:55.034Z,6.50
2022-11-27T12:04:49.383Z,6.60
2022-11-27T12:07:27.551Z,6.60
2022-11-27T12:10:05.622Z,6.50
2022-11-27T12:12:49.741Z,6.50
2022-11-27T12:15:24.641Z,6.50
2022-11-27T12:18:02.108Z,6.60
2022-11-27T12:20:52.833Z,6.30
2022-11-27T12:23:49.928Z,6.30
2022-11-27T12:26:31.075Z,6.30
2022-11-27T12:29:38.964Z,6.30
2022-11-27T12:32:35.706Z,6.30
2022-11-27T12:35:25.492Z,6.40
2022-11-27T12:38:02.333Z,6.30
2022-11-27T12:40:48.059Z,6.20
2022-11-27T12:43:26.207Z,6.30
2022-11-27T12:46:01.321Z,6.40
2022-11-27T12:48:36.635Z,6.50
2022-11-27T12:51:11.223Z,6.30
2022-11-27T12:53:47.613Z,6.40
2022-11-27T12:56:22.721Z,6.40
2022-11-27T12:58:57.423Z,6.40
2022-11-27T13:01:31.931Z,6.50
2022-11-27T13:04:11.578Z,6.50
2022-11-27T13:06:50.066Z,6.50
2022-11-27T13:09:27.515Z,6.50
2022-11-27T13:11:58.522Z,6.30
2022-11-27T13:14:30.492Z,6.30
2022-11-27T13:17:05.844Z,6.20
2022-11-27T13:19:40.305Z,6.00
2022-11-27T13:22:13.498Z,6.10
2022-11-27T13:24:43.548Z,6.00
2022-11-27T13:27:19.608Z,6.00
2022-11-27T13:29:55.035Z,6.00
2022-11-27T13:32:27.108Z,5.90
2022-11-27T13:34:59.661Z,5.90
2022-11-27T13:37:32.476Z,6.00
2022-11-27T13:40:04.771Z,6.00
2022-11-27T13:42:36.535Z,6.10
2022-11-27T13:45:11.847Z,6.00
2022-11-27T13:47:44.939Z,5.90
2022-11-27T13:50:16.420Z,5.80
2022-11-27T13:52:57.675Z,5.80
2022-11-27T13:55:30.230Z,5.70
2022-11-27T13:58:01.503Z,5.80
2022-11-27T14:00:38.095Z,5.80
2022-11-27T14:03:10.919Z,5.70
2022-11-27T14:05:43.644Z,5.70
2022-11-27T14:08:25.137Z,5.60
2022-11-27T14:10:58.844Z,5.60
2022-11-27T14:13:40.071Z,5.50
2022-11-27T14:16:26.637Z,5.50
2022-11-27T14:18:58.639Z,5.50
2022-11-27T14:21:38.554Z,5.40
2022-11-27T14:24:26.644Z,5.40
2022-11-27T14:26:56.719Z,5.40
2022-11-27T14:29:26.810Z,5.40
2022-11-27T14:32:02.528Z,5.50
2022-11-27T14:34:33.094Z,5.60
2022-11-27T14:37:02.711Z,5.60
2022-11-27T14:39:34.366Z,5.50
2022-11-27T14:42:06.077Z,5.50
2022-11-27T14:44:36.021Z,5.60
2022-11-27T14:47:09.271Z,5.60
2022-11-27T14:49:38.995Z,5.50
2022-11-27T14:52:17.560Z,5.40
2022-11-27T14:54:55.316Z,5.20
2022-11-27T14:57:29.350Z,5.20
2022-11-27T15:00:15.775Z,4.90
2022-11-27T15:02:50.925Z,5.00
2022-11-27T15:05:26.872Z,4.90
2022-11-27T15:08:03.157Z,5.10
2022-11-27T15:10:41.395Z,5.20
2022-11-27T15:13:29.967Z,5.00
2022-11-27T15:16:04.248Z,5.10
2022-11-27T15:18:41.205Z,5.10
2022-11-27T15:21:15.342Z,5.10
2022-11-27T15:23:47.892Z,5.10
2022-11-27T15:26:41.198Z,5.20
2022-11-27T15:29:54.535Z,5.10
2022-11-27T15:32:27.540Z,5.10
2022-11-27T15:35:01.040Z,5.00
2022-11-27T15:37:33.015Z,5.10
2022-11-27T15:40:05.896Z,5.10
2022-11-27T15:42:36.585Z,3.60
2022-11-27T15:45:16.398Z,5.00
2022-11-27T15:47:46.378Z,4.90
2022-11-27T15:50:20.887Z,4.80
2022-11-27T15:52:51.286Z,4.90
2022-11-27T15:55:23.006Z,4.80
2022-11-27T15:57:56.337Z,5.80
2022-11-27T16:00:26.971Z,4.70
2022-11-27T16:02:59.190Z,4.70
2022-11-27T16:05:30.894Z,4.80
2022-11-27T16:08:06.171Z,4.90
2022-11-27T16:10:35.001Z,5.80
2022-11-27T16:13:05.049Z,4.90
2022-11-27T16:15:34.443Z,5.00
2022-11-27T16:18:04.100Z,4.90
2022-11-27T16:20:35.500Z,4.80
2022-11-27T16:23:04.751Z,4.70
2022-11-27T16:25:33.587Z,4.60
2022-11-27T16:28:03.555Z,4.80
2022-11-27T16:30:32.805Z,4.90
2022-11-27T16:33:04.135Z,4.90
2022-11-27T16:35:35.581Z,4.60
2022-11-27T16:38:06.344Z,4.50
2022-11-27T16:40:37.880Z,4.70
2022-11-27T16:43:08.099Z,4.70
2022-11-27T16:45:38.185Z,4.70
2022-11-27T16:48:08.431Z,4.70
2022-11-27T16:50:40.850Z,4.60
2022-11-27T16:53:10.505Z,4.50
2022-11-27T16:55:41.153Z,4.50
2022-11-27T16:58:13.770Z,4.40
2022-11-27T17:00:43.054Z,4.30
2022-11-27T17:03:16.598Z,4.30
2022-11-27T17:05:51.319Z,4.30
2022-11-27T17:08:21.260Z,4.30
2022-11-27T17:10:50.264Z,4.30
2022-11-27T17:13:19.977Z,4.30
2022-11-27T17:15:49.907Z,4.20
2022-11-27T17:18:20.644Z,4.20
2022-11-27T17:20:51.788Z,4.20
2022-11-27T17:23:21.294Z,4.20
2022-11-27T17:25:51.103Z,4.10
2022-11-27T17:28:21.144Z,4.10
2022-11-27T17:30:50.612Z,4.10
2022-11-27T17:33:20.052Z,4.10
2022-11-27T17:35:48.922Z,4.10
2022-11-27T17:38:21.393Z,4.10
2022-11-27T17:40:51.843Z,4.00
2022-11-27T17:43:25.928Z,4.00
2022-11-27T17:45:55.420Z,4.00
2022-11-27T17:48:25.596Z,4.00
2022-11-27T17:50:55.502Z,4.00
2022-11-27T17:53:26.552Z,4.00
2022-11-27T17:55:57.952Z,3.90
2022-11-27T17:58:27.732Z,4.00
2022-11-27T18:00:57.929Z,4.00
2022-11-27T18:03:27.144Z,4.00
2022-11-27T18:05:57.332Z,4.00
2022-11-27T18:08:28.007Z,4.00
2022-11-27T18:10:58.442Z,4.10
2022-11-27T18:13:35.475Z,4.10
2022-11-27T18:16:12.385Z,4.00
2022-11-27T18:18:43.488Z,4.00
2022-11-27T18:21:18.498Z,4.00
2022-11-27T18:29:39.080Z,4.10
2022-11-27T18:32:17.765Z,4.10
2022-11-27T18:34:50.483Z,4.10
2022-11-27T18:37:21.461Z,4.10
2022-11-27T18:39:53.287Z,4.10
2022-11-27T18:42:23.018Z,4.10
2022-11-27T18:44:54.177Z,4.20
2022-11-27T18:47:23.096Z,4.20
2022-11-27T18:49:55.646Z,4.20
2022-11-27T18:52:25.506Z,4.30
2022-11-27T18:54:57.234Z,4.40
2022-11-27T18:57:28.899Z,4.30
2022-11-27T18:59:59.120Z,4.30
2022-11-27T19:02:31.107Z,4.20
2022-11-27T19:05:01.142Z,4.20
2022-11-27T19:07:32.678Z,4.20
2022-11-27T19:10:03.864Z,4.30
2022-11-27T19:12:33.885Z,4.20
2022-11-27T19:15:05.353Z,4.20
2022-11-27T19:17:34.837Z,4.20
2022-11-27T19:20:07.468Z,4.20
2022-11-27T19:22:40.442Z,4.20
2022-11-27T19:25:12.628Z,4.10
2022-11-27T19:27:49.752Z,4.10
2022-11-27T19:30:20.429Z,4.00
2022-11-27T19:32:52.658Z,4.00
2022-11-27T19:35:25.479Z,4.00
2022-11-27T19:37:57.602Z,4.10
2022-11-27T19:40:34.273Z,4.10
2022-11-27T19:43:05.557Z,4.10
2022-11-27T19:45:38.018Z,3.90
2022-11-27T19:48:11.865Z,3.80
2022-11-27T19:50:42.670Z,3.70
2022-11-27T19:53:12.689Z,3.70
2022-11-27T19:55:44.299Z,3.60
2022-11-27T19:58:14.668Z,3.50
2022-11-27T20:00:45.400Z,4.20
2022-11-27T20:03:15.363Z,3.40
2022-11-27T20:05:47.663Z,3.30
2022-11-27T20:08:17.930Z,3.20
2022-11-27T20:10:53.559Z,3.30
2022-11-27T20:13:24.227Z,3.40
2022-11-27T20:15:54.722Z,3.40
2022-11-27T20:18:24.985Z,3.30
2022-11-27T20:21:06.376Z,3.30
2022-11-27T20:23:36.276Z,3.30
2022-11-27T20:26:08.418Z,3.20
2022-11-27T20:28:39.331Z,3.30
2022-11-27T20:31:11.354Z,3.30
2022-11-27T20:33:41.410Z,3.30
2022-11-27T20:36:13.357Z,3.00
2022-11-27T20:38:42.890Z,2.90
2022-11-27T20:41:16.339Z,3.00
2022-11-27T20:43:46.392Z,3.00
2022-11-27T20:46:17.111Z,3.00
2022-11-27T20:48:48.220Z,3.00
2022-11-27T20:51:21.387Z,3.10
2022-11-27T20:53:52.259Z,3.10
2022-11-27T20:56:24.268Z,3.00
2022-11-27T20:58:56.797Z,2.90
2022-11-27T21:01:27.525Z,2.70
2022-11-27T21:03:58.399Z,2.70
2022-11-27T21:06:30.583Z,2.50
2022-11-27T21:09:02.020Z,2.50
2022-11-27T21:11:35.201Z,2.30
2022-11-27T21:14:06.904Z,2.30
2022-11-27T21:16:40.434Z,2.20
2022-11-27T21:19:15.513Z,2.20
2022-11-27T21:21:45.538Z,2.20
2022-11-27T21:24:15.479Z,2.20
2022-11-27T21:26:46.990Z,2.20
2022-11-27T21:29:17.838Z,2.20
2022-11-27T21:32:38.445Z,2.10
2022-11-27T21:35:08.737Z,2.00
2022-11-27T21:37:38.082Z,2.00
2022-11-27T21:40:10.390Z,2.10
2022-11-27T21:42:44.531Z,2.00
2022-11-27T21:45:15.400Z,1.80
2022-11-27T21:47:44.144Z,1.70
2022-11-27T21:50:14.163Z,1.60
2022-11-27T21:52:44.482Z,1.40
2022-11-27T21:55:14.340Z,1.40
2022-11-27T21:57:44.668Z,1.40
2022-11-27T22:00:15.357Z,1.40
2022-11-27T22:02:46.390Z,1.30
2022-11-27T22:05:16.239Z,1.40
2022-11-27T22:07:48.369Z,1.30
2022-11-27T22:10:18.245Z,1.40
2022-11-27T22:12:49.065Z,1.30
2022-11-27T22:15:18.197Z,1.30
2022-11-27T22:17:48.721Z,1.20
2022-11-27T22:20:18.910Z,1.20
2022-11-27T22:22:49.194Z,1.20
2022-11-27T22:25:19.012Z,1.10
2022-11-27T22:27:50.337Z,1.00
2022-11-27T22:30:20.629Z,1.00
2022-11-27T22:32:49.625Z,1.10
2022-11-27T22:35:21.423Z,1.00
2022-11-27T22:37:55.275Z,1.00
2022-11-27T22:40:25.849Z,1.00
2022-11-27T22:42:57.283Z,1.00
2022-11-27T22:45:27.228Z,0.90
2022-11-27T22:47:56.715Z,0.90
2022-11-27T22:50:28.066Z,1.00
2022-11-27T22:52:58.391Z,1.10
2022-11-27T22:55:29.662Z,1.10
2022-11-27T22:58:00.840Z,2.20
2022-11-27T23:00:30.365Z,1.20
2022-11-27T23:03:02.104Z,1.20
2022-11-27T23:05:32.635Z,1.20
2022-11-27T23:08:01.953Z,1.20
2022-11-27T23:10:31.032Z,1.20
2022-11-27T23:13:02.978Z,1.30
2022-11-27T23:15:35.089Z,1.30
2022-11-27T23:18:04.079Z,1.30
2022-11-27T23:20:33.210Z,1.30
2022-11-27T23:23:02.518Z,1.40
2022-11-27T23:25:32.433Z,1.50
2022-11-27T23:28:05.140Z,1.50
2022-11-27T23:30:34.943Z,1.50
2022-11-27T23:33:04.484Z,1.90
2022-11-27T23:35:33.686Z,1.60
2022-11-27T23:38:03.067Z,1.60
2022-11-27T23:40:31.881Z,1.70
2022-11-27T23:43:02.493Z,1.70
2022-11-27T23:45:32.495Z,1.70
2022-11-27T23:48:01.910Z,1.70
2022-11-27T23:50:31.741Z,1.70
2022-11-27T23:53:01.488Z,1.70
2022-11-27T23:55:30.379Z,1.70
2022-11-27T23:57:59.476Z,1.70
